Time;durP1;ratioP1;P1;durP2;ratioP2;P2;SDS_P1;SDS_P2;PMS_P1;PMS_P2;Temp;Humidity;BMP_temperature;BMP_pressure;BME280_temperature;BME280_humidity;BME280_pressure;Samples;Min_cycle;Max_cycle;Signal;HPM_P1;HPM_P2
2022/12/03 00:00:24;;;;;;;8.77;7.93;;;;;;;20.04;48.37;97494.78;4989205;28;20216;-96
2022/12/03 00:02:51;;;;;;;9.43;8.47;;;;;;;20.23;48.50;97526.94;4992915;28;20218;-96
2022/12/03 00:05:18;;;;;;;8.17;7.37;;;;;;;19.39;48.49;97382.84;4991579;28;20207;-95
2022/12/03 00:07:44;;;;;;;8.57;7.77;;;;;;;19.57;48.62;97408.16;4992807;28;20241;-93
2022/12/03 00:10:11;;;;;;;8.70;7.80;;;;;;;20.05;48.42;97503.31;4982814;28;20206;-95
2022/12/03 00:12:37;;;;;;;8.77;7.87;;;;;;;19.34;48.13;97366.56;4985451;28;20216;-94
2022/12/03 00:15:05;;;;;;;8.50;7.70;;;;;;;20.13;48.51;97517.25;4993774;28;20203;-94
2022/12/03 00:17:32;;;;;;;8.17;7.47;;;;;;;19.06;48.46;97311.97;4976648;28;20309;-96
2022/12/03 00:19:59;;;;;;;8.47;7.57;;;;;;;19.65;48.45;97416.91;5011386;28;20196;-95
2022/12/03 00:22:25;;;;;;;8.90;8.03;;;;;;;19.23;48.18;97344.88;4992869;28;20180;-95
2022/12/03 00:24:52;;;;;;;8.53;7.73;;;;;;;19.60;48.13;97419.28;4995621;28;20222;-95
2022/12/03 00:27:19;;;;;;;8.43;7.60;;;;;;;19.66;48.53;97421.22;4994707;28;20212;-95
2022/12/03 00:29:46;;;;;;;9.03;8.13;;;;;;;19.54;48.76;97398.69;4985175;28;20204;-95
2022/12/03 00:32:13;;;;;;;8.57;7.77;;;;;;;19.61;48.18;97407.44;4994550;28;20200;-95
2022/12/03 00:34:39;;;;;;;8.97;8.10;;;;;;;19.97;48.26;97467.34;5002303;28;20189;-93
2022/12/03 00:37:06;;;;;;;8.33;7.53;;;;;;;19.93;48.38;97474.00;4994640;28;20194;-94
2022/12/03 00:39:32;;;;;;;8.70;7.80;;;;;;;20.18;48.44;97515.72;4980835;28;20196;-95
2022/12/03 00:41:59;;;;;;;8.57;7.77;;;;;;;19.65;48.30;97425.44;5006330;28;20272;-91
2022/12/03 00:44:26;;;;;;;8.73;7.90;;;;;;;20.06;48.43;97502.50;4990170;28;20184;-95
2022/12/03 00:46:52;;;;;;;9.07;8.17;;;;;;;19.26;48.21;97359.41;4995815;28;20228;-95
2022/12/03 00:49:19;;;;;;;8.40;7.60;;;;;;;19.61;48.56;97435.47;4990365;28;20650;-95
2022/12/03 00:51:45;;;;;;;8.27;7.47;;;;;;;19.70;48.67;97435.78;4987554;28;20209;-94
2022/12/03 00:54:12;;;;;;;8.73;7.83;;;;;;;19.54;48.36;97421.63;5007661;28;20194;-96
2022/12/03 00:56:38;;;;;;;8.40;7.60;;;;;;;19.98;48.75;97480.97;4989952;28;20179;-94
2022/12/03 00:59:05;;;;;;;8.30;7.50;;;;;;;19.29;48.38;97385.03;4978889;28;20187;-95
2022/12/03 01:01:32;;;;;;;8.67;7.80;;;;;;;20.54;48.63;97583.34;4993001;28;20212;-96
2022/12/03 01:03:58;;;;;;;8.60;7.80;;;;;;;20.52;48.65;97575.63;4995104;28;20177;-95
2022/12/03 01:06:25;;;;;;;8.67;7.77;;;;;;;20.22;48.54;97532.88;4994222;28;20204;-96
2022/12/03 01:08:51;;;;;;;8.90;8.00;;;;;;;20.03;48.82;97495.63;4998752;28;20202;-93
2022/12/03 01:11:36;;;;;;;7.67;6.97;;;;;;;20.53;48.05;97576.50;4978881;28;20208;-95
2022/12/03 01:14:08;;;;;;;8.67;7.87;;;;;;;18.94;48.35;97316.63;4990333;28;20184;-95
2022/12/03 01:16:35;;;;;;;8.10;7.30;;;;;;;18.81;48.12;97279.69;4979039;28;20199;-93
2022/12/03 01:19:02;;;;;;;8.20;7.40;;;;;;;19.52;48.48;97404.56;4991390;28;20189;-95
2022/12/03 01:21:28;;;;;;;9.37;8.47;;;;;;;19.57;48.34;97406.44;4996430;28;20200;-96
2022/12/03 01:23:55;;;;;;;8.63;7.73;;;;;;;20.31;48.27;97539.16;4992577;28;20204;-95
2022/12/03 01:26:22;;;;;;;8.10;7.30;;;;;;;19.70;48.25;97433.25;4980559;28;20199;-96
2022/12/03 01:28:48;;;;;;;8.70;7.80;;;;;;;20.02;48.23;97481.13;4993488;28;20252;-94
2022/12/03 01:34:00;;;;;;;8.37;7.57;;;;;;;19.51;48.12;97410.47;4993221;28;20266;-95
2022/12/03 01:36:27;;;;;;;8.97;8.07;;;;;;;20.05;48.27;97488.00;4998025;28;20184;-95
2022/12/03 01:38:53;;;;;;;8.50;7.63;;;;;;;19.59;48.14;97409.94;4994640;28;20208;-95
2022/12/03 01:41:21;;;;;;;8.30;7.50;;;;;;;19.60;48.23;97410.81;4992148;28;20215;-95
2022/12/03 01:43:49;;;;;;;7.83;7.13;;;;;;;20.06;48.35;97505.94;5004988;28;20211;-95
2022/12/03 01:46:18;;;;;;;8.57;7.77;;;;;;;18.85;48.03;97273.00;4997444;28;20243;-91
2022/12/03 01:48:45;;;;;;;8.80;7.93;;;;;;;19.09;48.24;97327.38;4973505;28;20231;-94
2022/12/03 01:51:12;;;;;;;8.40;7.57;;;;;;;19.62;48.04;97416.78;4979918;28;20224;-94
2022/12/03 01:53:38;;;;;;;8.47;7.67;;;;;;;19.07;48.20;97317.13;5006552;28;20192;-94
2022/12/03 01:56:05;;;;;;;8.10;7.30;;;;;;;19.79;48.31;97442.09;4989916;28;20213;-94
2022/12/03 01:58:32;;;;;;;8.17;7.37;;;;;;;19.76;48.10;97439.44;4994544;28;20180;-95
2022/12/03 02:01:00;;;;;;;8.00;7.23;;;;;;;19.57;48.12;97405.59;4987205;28;20264;-96
2022/12/03 02:03:27;;;;;;;7.80;7.03;;;;;;;19.58;48.28;97415.84;4979549;28;20203;-94
2022/12/03 02:05:54;;;;;;;8.53;7.73;;;;;;;20.00;48.36;97487.84;5007581;28;20187;-96
2022/12/03 02:08:28;;;;;;;8.13;7.37;;;;;;;19.66;48.39;97450.09;5004721;28;20208;-95
2022/12/03 02:10:56;;;;;;;7.40;6.70;;;;;;;19.51;48.55;97411.31;4994119;28;20223;-92
2022/12/03 02:13:23;;;;;;;8.13;7.33;;;;;;;19.93;48.10;97484.22;4990737;28;20176;-95
2022/12/03 02:15:49;;;;;;;8.30;7.50;;;;;;;19.31;48.41;97371.56;5010681;28;20191;-94
2022/12/03 02:18:16;;;;;;;8.47;7.67;;;;;;;20.52;48.37;97574.75;4993229;28;20227;-95
2022/12/03 02:20:57;;;;;;;8.33;7.53;;;;;;;18.86;48.35;97300.22;4970371;28;20226;-94
2022/12/03 02:23:38;;;;;;;8.03;7.27;;;;;;;19.98;48.57;97491.19;4989717;28;20180;-95
2022/12/03 02:26:05;;;;;;;8.70;7.83;;;;;;;19.08;48.24;97335.81;4997507;28;20271;-95
2022/12/03 02:28:32;;;;;;;7.50;6.80;;;;;;;19.41;47.93;97388.88;4995209;28;20211;-95
2022/12/03 02:30:58;;;;;;;8.20;7.40;;;;;;;19.17;48.29;97352.31;4990035;28;20209;-95
2022/12/03 02:33:25;;;;;;;7.90;7.20;;;;;;;19.64;48.35;97436.47;4974581;28;20189;-95
2022/12/03 02:35:51;;;;;;;8.10;7.40;;;;;;;19.58;48.24;97420.94;4990131;28;20281;-95
2022/12/03 02:38:25;;;;;;;7.90;7.10;;;;;;;19.84;48.31;97466.03;4989895;28;20210;-95
2022/12/03 02:40:55;;;;;;;8.13;7.33;;;;;;;20.05;48.04;97513.53;4990450;28;20208;-93
2022/12/03 02:43:22;;;;;;;8.30;7.50;;;;;;;19.37;48.13;97387.06;4990480;28;20191;-94
2022/12/03 02:45:53;;;;;;;8.30;7.57;;;;;;;19.21;48.42;97359.25;4993873;28;20207;-95
2022/12/03 02:48:27;;;;;;;8.17;7.37;;;;;;;20.52;48.31;97584.97;4995330;28;20219;-94
2022/12/03 02:50:56;;;;;;;7.50;6.80;;;;;;;18.49;48.22;97242.03;5010331;28;20607;-95
2022/12/03 02:53:27;;;;;;;8.13;7.30;;;;;;;19.74;48.22;97450.38;4989402;28;20190;-96
2022/12/03 02:55:55;;;;;;;7.90;7.20;;;;;;;19.09;48.11;97347.75;4987560;28;20212;-95
2022/12/03 02:58:21;;;;;;;7.40;6.70;;;;;;;19.36;47.79;97394.66;4994228;28;20172;-95
2022/12/03 03:00:48;;;;;;;7.93;7.17;;;;;;;19.99;48.05;97491.22;4987646;28;20204;-95
2022/12/03 03:03:15;;;;;;;7.80;7.10;;;;;;;19.58;48.46;97428.59;4996496;28;20210;-94
2022/12/03 03:05:41;;;;;;;7.40;6.70;;;;;;;20.11;48.27;97514.63;4994028;28;20190;-94
2022/12/03 03:08:08;;;;;;;7.27;6.57;;;;;;;20.24;48.46;97533.78;4996896;28;20215;-94
2022/12/03 03:10:35;;;;;;;8.10;7.30;;;;;;;20.04;48.39;97520.31;4990864;28;20196;-90
2022/12/03 03:13:02;;;;;;;7.63;6.93;;;;;;;19.04;48.28;97328.91;4987521;28;20214;-94
2022/12/03 03:15:29;;;;;;;7.77;7.07;;;;;;;19.74;48.32;97451.25;4993537;28;20195;-94
2022/12/03 03:17:55;;;;;;;7.33;6.63;;;;;;;20.51;48.32;97580.66;4988620;28;20192;-94
2022/12/03 03:20:22;;;;;;;7.70;7.00;;;;;;;19.95;48.23;97472.41;4995597;28;20203;-94
2022/12/03 03:22:48;;;;;;;7.70;7.00;;;;;;;19.74;47.86;97447.81;4988535;28;20184;-95
2022/12/03 03:25:16;;;;;;;8.60;7.60;;;;;;;18.49;48.32;97213.16;4997029;28;20207;-95
2022/12/03 03:27:43;;;;;;;7.67;6.97;;;;;;;19.78;48.33;97449.69;4992217;28;20255;-91
2022/12/03 03:30:10;;;;;;;8.50;7.63;;;;;;;19.05;48.10;97326.41;4989552;28;20200;-95
2022/12/03 03:32:37;;;;;;;8.03;7.30;;;;;;;19.74;48.21;97446.16;4991926;28;20216;-93
2022/12/03 03:35:04;;;;;;;8.10;7.30;;;;;;;19.59;48.14;97437.09;4989423;28;20184;-95
2022/12/03 03:37:30;;;;;;;8.13;7.33;;;;;;;19.25;48.33;97380.63;4994481;28;20187;-95
2022/12/03 03:39:57;;;;;;;7.63;6.93;;;;;;;19.08;48.09;97328.19;4979427;28;20214;-95
2022/12/03 03:42:23;;;;;;;8.17;7.37;;;;;;;19.98;48.12;97485.25;4981597;28;20199;-96
2022/12/03 03:44:50;;;;;;;8.20;7.40;;;;;;;19.35;48.20;97372.50;4986431;28;20188;-95
2022/12/03 03:47:17;;;;;;;8.27;7.47;;;;;;;19.49;48.01;97397.69;4992767;28;20226;-95
2022/12/03 03:49:43;;;;;;;8.53;7.63;;;;;;;20.21;48.05;97526.03;5002685;28;20211;-96
2022/12/03 03:52:10;;;;;;;8.23;7.43;;;;;;;19.09;48.17;97343.53;4988102;28;20180;-95
2022/12/03 03:54:37;;;;;;;8.13;7.37;;;;;;;20.25;48.17;97527.88;4986452;28;20187;-94
2022/12/03 03:57:03;;;;;;;7.90;7.10;;;;;;;18.93;48.04;97292.00;4999701;28;20207;-95
2022/12/03 03:59:30;;;;;;;8.53;7.67;;;;;;;19.74;48.20;97446.16;5007721;28;20202;-96
2022/12/03 04:01:56;;;;;;;7.17;6.47;;;;;;;19.65;48.20;97415.22;4987843;28;20210;-95
2022/12/03 04:04:25;;;;;;;8.20;7.40;;;;;;;19.36;48.35;97382.75;4984551;28;20180;-94
2022/12/03 04:06:52;;;;;;;7.93;7.13;;;;;;;18.94;47.98;97286.94;4989487;28;20208;-95
2022/12/03 04:09:18;;;;;;;8.10;7.30;;;;;;;20.21;48.18;97514.13;5013310;28;20207;-96
2022/12/03 04:14:30;;;;;;;7.87;7.07;;;;;;;19.56;48.13;97406.38;4991965;28;20198;-94
2022/12/03 04:16:57;;;;;;;7.87;7.07;;;;;;;19.17;48.22;97336.16;5004113;28;20217;-95
2022/12/03 04:19:23;;;;;;;8.57;7.70;;;;;;;19.96;47.63;97466.47;4994546;28;20187;-93
2022/12/03 04:24:35;;;;;;;8.57;7.73;;;;;;;19.73;48.02;97425.69;4995319;28;20194;-94
2022/12/03 04:29:47;;;;;;;8.33;7.53;;;;;;;19.11;48.16;97310.47;5000741;28;20212;-95
2022/12/03 04:37:44;;;;;;;7.67;6.97;;;;;;;19.72;48.03;97424.81;4997823;28;20192;-96
2022/12/03 04:42:56;;;;;;;8.13;7.37;;;;;;;20.02;48.22;97468.38;4996876;28;20270;-91
2022/12/03 04:45:23;;;;;;;7.87;7.13;;;;;;;19.99;48.11;97456.38;4995795;28;20203;-92
2022/12/03 04:47:49;;;;;;;7.83;7.03;;;;;;;20.31;48.27;97511.06;5014870;28;20227;-90
2022/12/03 04:50:16;;;;;;;8.77;7.87;;;;;;;19.72;48.37;97422.28;4994794;28;20196;-92
2022/12/03 04:52:42;;;;;;;8.53;7.73;;;;;;;19.98;48.30;97458.88;5004983;28;20242;-92
2022/12/03 04:55:09;;;;;;;8.47;7.67;;;;;;;19.98;48.21;97458.88;4996939;28;20242;-90
2022/12/03 04:57:35;;;;;;;8.67;7.80;;;;;;;18.27;47.96;97183.53;4989919;28;20194;-91
2022/12/03 05:00:04;;;;;;;8.43;7.63;;;;;;;19.51;48.02;97396.03;4996952;28;20211;-91
2022/12/03 05:02:30;;;;;;;8.30;7.50;;;;;;;19.99;48.43;97471.69;4990796;28;20189;-92
2022/12/03 05:04:57;;;;;;;8.93;8.03;;;;;;;19.53;48.55;97396.09;4997524;28;20183;-91
2022/12/03 05:07:24;;;;;;;8.70;7.90;;;;;;;20.01;48.55;97465.78;4993625;28;20207;-92
2022/12/03 05:09:50;;;;;;;8.30;7.47;;;;;;;20.23;47.83;97507.41;4996521;28;20198;-92
2022/12/03 05:12:17;;;;;;;8.00;7.20;;;;;;;20.00;48.06;97467.44;4996159;28;20247;-91
2022/12/03 05:14:43;;;;;;;8.37;7.57;;;;;;;19.00;48.20;97294.81;5006214;28;20192;-91
2022/12/03 05:17:10;;;;;;;9.10;8.13;;;;;;;20.24;48.22;97510.81;5000329;28;20184;-91
2022/12/03 05:22:22;;;;;;;7.93;7.13;;;;;;;19.17;48.20;97349.78;4993937;28;20188;-92
2022/12/03 05:24:48;;;;;;;8.00;7.20;;;;;;;19.92;48.47;97471.41;5007882;28;20188;-91
2022/12/03 05:27:15;;;;;;;8.20;7.40;;;;;;;18.85;48.17;97293.38;4992272;28;20180;-91
2022/12/03 05:29:48;;;;;;;8.70;7.80;;;;;;;19.95;48.20;97484.28;4993576;28;20185;-91
2022/12/03 05:32:15;;;;;;;8.33;7.53;;;;;;;19.26;48.17;97369.59;4993547;28;20200;-91
2022/12/03 05:34:42;;;;;;;9.03;8.17;;;;;;;19.85;47.92;97465.25;5011896;28;20220;-91
2022/12/03 05:37:08;;;;;;;8.17;7.37;;;;;;;19.59;48.04;97415.03;4993757;28;20188;-91
2022/12/03 05:39:35;;;;;;;8.30;7.50;;;;;;;19.92;48.67;97473.97;4997682;28;20191;-91
2022/12/03 05:44:47;;;;;;;8.67;7.57;;;;;;;19.43;48.20;97388.94;4992326;28;20188;-91
2022/12/03 05:47:13;;;;;;;8.90;7.87;;;;;;;19.95;48.19;97484.28;4995825;28;20179;-92
2022/12/03 05:49:40;;;;;;;8.23;7.40;;;;;;;20.22;47.91;97528.63;4992526;28;20255;-92
2022/12/03 05:52:06;;;;;;;8.87;7.97;;;;;;;18.88;48.04;97293.50;4991394;28;20291;-91
2022/12/03 05:54:33;;;;;;;9.17;8.20;;;;;;;20.24;47.96;97528.69;4993937;28;20188;-92
2022/12/03 05:57:00;;;;;;;9.13;8.23;;;;;;;19.63;48.46;97423.66;4996471;28;20189;-91
2022/12/03 05:59:26;;;;;;;9.00;8.07;;;;;;;18.79;47.71;97278.75;4994048;28;20275;-93
2022/12/03 06:01:53;;;;;;;8.80;7.90;;;;;;;19.05;48.17;97325.53;4989535;28;20216;-91
2022/12/03 06:04:19;;;;;;;9.93;8.20;;;;;;;20.01;47.74;97496.38;4998584;28;20203;-91
2022/12/03 06:06:46;;;;;;;9.30;8.30;;;;;;;19.23;48.24;97366.94;4990839;28;20215;-90
2022/12/03 06:09:12;;;;;;;9.53;8.17;;;;;;;19.85;47.88;97483.09;4986398;28;20224;-92
2022/12/03 06:11:40;;;;;;;9.10;8.13;;;;;;;19.98;48.00;97498.84;4992858;28;20204;-91
2022/12/03 06:14:07;;;;;;;9.43;8.40;;;;;;;19.11;48.06;97362.28;4991692;28;21205;-90
2022/12/03 06:16:33;;;;;;;8.73;7.83;;;;;;;19.40;48.05;97394.81;4992349;28;20216;-91
2022/12/03 06:19:00;;;;;;;9.00;8.10;;;;;;;19.37;48.01;97386.19;4994305;28;20231;-91
2022/12/03 06:21:27;;;;;;;8.00;7.20;;;;;;;19.04;48.20;97350.13;4986164;28;20232;-91
2022/12/03 06:23:53;;;;;;;8.43;7.53;;;;;;;19.05;48.20;97338.25;4995594;28;20255;-92
2022/12/03 06:26:20;;;;;;;8.43;7.60;;;;;;;20.32;48.34;97579.19;4989357;28;20188;-92
2022/12/03 06:28:48;;;;;;;9.80;8.30;;;;;;;19.98;48.28;97496.28;4992555;28;20267;-91
2022/12/03 06:31:14;;;;;;;9.10;8.13;;;;;;;19.70;48.16;97448.53;4985014;28;20231;-91
2022/12/03 06:33:41;;;;;;;8.90;8.00;;;;;;;19.59;48.09;97432.00;4993740;28;20207;-91
2022/12/03 06:36:08;;;;;;;7.93;7.13;;;;;;;20.49;48.20;97582.31;4994105;28;20214;-91
2022/12/03 06:38:34;;;;;;;8.43;7.63;;;;;;;18.60;48.22;97261.09;5008571;28;20250;-91
2022/12/03 06:41:01;;;;;;;8.23;7.43;;;;;;;19.52;48.12;97413.09;4978973;28;20279;-92
2022/12/03 06:43:27;;;;;;;9.03;8.00;;;;;;;20.22;48.13;97536.28;4987706;28;20191;-91
2022/12/03 06:45:54;;;;;;;7.70;6.90;;;;;;;19.64;47.95;97435.56;5009204;28;20244;-91
2022/12/03 06:48:20;;;;;;;8.33;7.50;;;;;;;20.00;48.14;97487.84;4989376;28;20220;-92
2022/12/03 06:50:47;;;;;;;8.90;8.00;;;;;;;19.95;48.37;97484.28;4993392;28;20235;-90
2022/12/03 06:53:13;;;;;;;8.73;7.83;;;;;;;19.94;48.07;97472.34;4984326;28;20187;-91
2022/12/03 06:55:40;;;;;;;8.07;7.13;;;;;;;19.98;48.17;97480.97;4994055;28;20187;-91
2022/12/03 06:58:06;;;;;;;8.50;7.63;;;;;;;19.06;48.49;97322.16;4994423;28;20246;-92
2022/12/03 07:00:33;;;;;;;8.50;7.70;;;;;;;19.27;48.24;97356.94;4987569;28;20213;-91
2022/12/03 07:03:00;;;;;;;8.33;7.53;;;;;;;20.24;48.29;97519.34;4994553;28;20223;-91
2022/12/03 07:05:26;;;;;;;8.10;7.30;;;;;;;20.01;48.10;97483.63;4989570;28;20204;-91
2022/12/03 07:07:54;;;;;;;8.87;7.60;;;;;;;19.73;48.37;97438.44;4994335;28;20188;-91
2022/12/03 07:10:21;;;;;;;9.30;7.70;;;;;;;19.29;48.20;97362.09;4991745;28;20227;-91
2022/12/03 07:12:47;;;;;;;9.83;8.33;;;;;;;19.35;47.96;97367.41;5004913;28;20188;-91
2022/12/03 07:15:14;;;;;;;9.00;8.07;;;;;;;19.80;48.36;97455.69;4990764;28;20259;-92
2022/12/03 07:17:41;;;;;;;7.67;6.87;;;;;;;20.01;48.30;97497.22;4993400;28;20184;-92
2022/12/03 07:20:07;;;;;;;7.87;7.07;;;;;;;19.98;47.98;97492.03;4991133;28;20249;-91
2022/12/03 07:22:34;;;;;;;8.07;7.27;;;;;;;20.31;48.71;97539.16;4995458;28;20212;-91
2022/12/03 07:25:01;;;;;;;8.23;7.23;;;;;;;19.71;48.90;97445.16;4991251;28;20199;-91
2022/12/03 07:27:27;;;;;;;8.07;7.27;;;;;;;19.99;48.05;97481.03;4989890;28;20252;-91
2022/12/03 07:29:54;;;;;;;8.13;7.33;;;;;;;19.67;48.18;97449.31;4991012;28;20216;-91
2022/12/03 07:32:20;;;;;;;8.13;7.33;;;;;;;19.99;48.44;97483.59;5006519;28;20206;-92
2022/12/03 07:34:47;;;;;;;8.67;7.77;;;;;;;19.46;48.13;97391.59;4991986;28;20186;-90
2022/12/03 07:37:13;;;;;;;8.73;7.43;;;;;;;19.22;48.24;97342.28;4975727;28;20198;-91
2022/12/03 07:39:46;;;;;;;7.90;7.10;;;;;;;19.31;48.38;97376.66;4993547;28;20227;-91
2022/12/03 07:42:13;;;;;;;8.10;7.30;;;;;;;19.97;48.65;97480.09;4991702;28;20214;-92
2022/12/03 07:44:40;;;;;;;7.43;6.73;;;;;;;19.96;48.05;97484.31;4987946;28;20195;-91
2022/12/03 07:47:06;;;;;;;7.93;7.13;;;;;;;20.22;48.48;97523.53;4991260;28;20537;-92
2022/12/03 07:49:33;;;;;;;8.17;7.37;;;;;;;19.77;48.65;97446.25;5005570;28;20234;-90
2022/12/03 07:51:59;;;;;;;8.13;7.30;;;;;;;20.11;48.21;97499.31;4988006;28;20231;-91
2022/12/03 07:54:26;;;;;;;8.13;7.30;;;;;;;19.99;47.87;97481.03;4991378;28;20251;-91
2022/12/03 07:56:52;;;;;;;8.23;7.33;;;;;;;20.22;48.41;97523.53;4993185;28;20196;-90
2022/12/03 07:59:26;;;;;;;7.53;6.83;;;;;;;18.45;48.25;97219.84;4991299;28;20207;-92
2022/12/03 08:01:53;;;;;;;8.27;7.37;;;;;;;20.23;48.01;97525.28;4987057;28;20216;-91
2022/12/03 08:04:20;;;;;;;8.50;7.10;;;;;;;20.02;48.16;97482.81;4992920;28;20179;-91
2022/12/03 08:06:47;;;;;;;8.13;7.33;;;;;;;19.62;48.26;97427.88;4991616;28;20183;-92
2022/12/03 08:09:13;;;;;;;7.93;7.17;;;;;;;20.31;48.17;97535.75;4981385;28;20207;-91
2022/12/03 08:11:43;;;;;;;8.03;7.23;;;;;;;19.59;48.17;97406.50;4994636;28;20207;-92
2022/12/03 08:14:12;;;;;;;7.60;6.90;;;;;;;19.73;48.36;97424.03;4993109;28;20231;-91
2022/12/03 08:16:40;;;;;;;8.87;7.77;;;;;;;20.05;48.21;97471.03;5010390;28;20200;-92
2022/12/03 08:19:10;;;;;;;8.80;7.47;;;;;;;19.32;48.10;97352.00;4995629;28;20187;-91
2022/12/03 08:21:37;;;;;;;7.90;7.10;;;;;;;19.42;48.17;97366.84;5011243;28;20270;-91
2022/12/03 08:24:13;;;;;;;7.57;6.87;;;;;;;20.50;48.15;97551.75;5000530;28;20203;-91
2022/12/03 08:26:40;;;;;;;8.77;7.57;;;;;;;19.73;48.18;97421.47;4988965;28;20206;-91
2022/12/03 08:29:12;;;;;;;8.30;7.40;;;;;;;19.56;48.08;97408.94;5012695;28;20278;-91
2022/12/03 08:31:38;;;;;;;8.20;7.27;;;;;;;19.49;48.07;97395.13;4994141;28;20264;-91
2022/12/03 08:34:22;;;;;;;8.50;7.60;;;;;;;19.56;48.19;97399.63;4997893;28;20208;-91
2022/12/03 08:36:50;;;;;;;8.13;7.33;;;;;;;19.58;48.04;97418.41;4991430;28;20212;-92
2022/12/03 08:39:33;;;;;;;7.43;6.70;;;;;;;19.92;48.14;97458.66;4983067;28;20255;-91
2022/12/03 08:44:48;;;;;;;7.70;6.90;;;;;;;20.51;48.20;97562.78;4989858;28;20184;-91
2022/12/03 08:47:19;;;;;;;8.37;7.47;;;;;;;20.42;48.13;97562.47;4978258;28;20186;-91
2022/12/03 08:50:28;;;;;;;7.97;7.17;;;;;;;19.51;47.96;97385.84;4991765;28;20214;-91
2022/12/03 08:53:18;;;;;;;7.70;6.90;;;;;;;19.48;48.09;97379.78;5002398;28;20192;-91
2022/12/03 08:55:47;;;;;;;7.97;7.17;;;;;;;20.02;48.06;97470.06;4984675;28;20196;-91
2022/12/03 08:58:27;;;;;;;8.07;7.13;;;;;;;19.20;48.20;97334.59;4984906;28;20188;-91
2022/12/03 09:00:59;;;;;;;7.70;6.90;;;;;;;20.05;48.24;97472.72;4972860;28;20227;-91
2022/12/03 09:03:28;;;;;;;7.13;6.43;;;;;;;19.87;48.18;97455.09;4995210;28;20226;-91
2022/12/03 09:05:55;;;;;;;7.47;6.77;;;;;;;19.52;48.22;97379.94;5005816;28;20191;-91
2022/12/03 09:08:21;;;;;;;8.10;6.93;;;;;;;19.07;48.01;97288.25;4996666;28;20284;-90
2022/12/03 09:10:48;;;;;;;7.07;6.37;;;;;;;19.22;47.98;97327.84;4989733;28;20269;-91
2022/12/03 09:13:14;;;;;;;6.87;6.17;;;;;;;20.18;48.22;97521.69;4993481;28;20267;-91
2022/12/03 09:15:41;;;;;;;7.63;6.80;;;;;;;20.50;47.76;97582.38;5007260;28;20250;-91
2022/12/03 09:18:07;;;;;;;7.03;6.30;;;;;;;20.04;48.22;97478.63;4993573;28;20207;-90
2022/12/03 09:20:34;;;;;;;8.13;7.10;;;;;;;19.84;48.01;97462.66;4992608;28;20228;-92
2022/12/03 09:23:01;;;;;;;7.67;6.87;;;;;;;19.99;48.17;97494.63;4994896;28;20200;-91
2022/12/03 09:25:27;;;;;;;7.33;6.60;;;;;;;18.78;48.30;97271.94;4993745;28;20204;-91
2022/12/03 09:27:54;;;;;;;7.80;7.00;;;;;;;20.19;48.10;97503.00;4988669;28;20187;-91
2022/12/03 09:30:20;;;;;;;7.77;6.97;;;;;;;19.73;48.29;97434.22;4993981;28;20274;-91
2022/12/03 09:32:47;;;;;;;7.67;6.87;;;;;;;18.97;48.11;97304.88;4990984;28;20187;-91
2022/12/03 09:35:13;;;;;;;8.20;7.40;;;;;;;20.25;48.28;97515.13;4979116;28;20180;-91
2022/12/03 09:37:40;;;;;;;8.00;7.20;;;;;;;20.51;48.06;97561.13;4993584;28;20227;-91
2022/12/03 09:40:07;;;;;;;7.60;6.87;;;;;;;19.78;48.44;97434.38;4995226;28;20204;-91
2022/12/03 09:42:34;;;;;;;7.30;6.57;;;;;;;20.45;48.06;97543.03;4970666;28;20209;-91
2022/12/03 09:45:01;;;;;;;7.77;6.97;;;;;;;19.53;47.83;97381.66;5001291;28;20239;-91
2022/12/03 09:47:28;;;;;;;6.73;6.10;;;;;;;19.44;47.74;97371.16;5010454;28;20234;-92
2022/12/03 09:49:54;;;;;;;7.80;7.00;;;;;;;20.02;48.04;97463.28;4989865;28;20235;-91
2022/12/03 09:52:23;;;;;;;7.37;6.67;;;;;;;19.06;48.01;97289.06;5006834;28;20248;-92
2022/12/03 09:54:51;;;;;;;7.43;6.63;;;;;;;20.52;48.26;97544.13;4991365;28;20199;-91
2022/12/03 09:57:18;;;;;;;6.97;6.27;;;;;;;20.00;48.33;97475.09;4996383;28;20252;-92
2022/12/03 09:59:45;;;;;;;7.03;6.30;;;;;;;19.80;48.22;97407.22;4976521;28;20259;-91
2022/12/03 10:02:23;;;;;;;7.30;6.60;;;;;;;19.04;48.19;97281.34;4989810;28;20184;-92
2022/12/03 10:04:50;;;;;;;7.47;6.63;;;;;;;19.33;48.35;97329.13;4993436;28;20191;-91
2022/12/03 10:07:17;;;;;;;6.90;6.20;;;;;;;18.97;48.22;97284.50;4989945;28;20196;-91
2022/12/03 10:09:44;;;;;;;7.10;6.37;;;;;;;19.95;48.59;97444.34;5009095;28;20275;-90
2022/12/03 10:12:11;;;;;;;7.47;6.70;;;;;;;20.50;48.21;97546.63;4991110;28;20191;-90
2022/12/03 10:14:38;;;;;;;7.80;6.70;;;;;;;20.18;48.29;97474.88;4987576;28;20217;-92
2022/12/03 10:17:04;;;;;;;7.33;6.40;;;;;;;19.99;48.21;97448.72;4995140;28;20206;-92
2022/12/03 10:19:31;;;;;;;7.50;6.40;;;;;;;19.62;48.14;97379.44;4990090;28;20260;-91
2022/12/03 10:21:58;;;;;;;6.67;6.07;;;;;;;19.69;48.29;97386.47;4996228;28;20215;-92
2022/12/03 10:24:29;;;;;;;7.53;6.83;;;;;;;19.76;48.22;97407.97;4993349;28;20176;-92
2022/12/03 10:26:57;;;;;;;7.00;6.30;;;;;;;19.57;48.09;97377.56;5003974;28;20195;-91
2022/12/03 10:29:34;;;;;;;7.70;6.87;;;;;;;20.05;48.20;97467.59;4993343;28;20239;-92
2022/12/03 10:32:02;;;;;;;6.87;6.10;;;;;;;20.49;48.17;97534.66;4990127;28;20287;-91
2022/12/03 10:34:32;;;;;;;7.53;6.83;;;;;;;20.49;47.90;97521.91;4995089;28;20249;-91
2022/12/03 10:37:15;;;;;;;7.10;6.20;;;;;;;20.49;48.05;97527.00;4990266;28;20184;-91
2022/12/03 10:40:09;;;;;;;7.97;7.17;;;;;;;20.48;48.26;97520.19;4995579;28;20236;-91
2022/12/03 10:42:38;;;;;;;7.90;7.10;;;;;;;19.54;48.18;97355.34;4988850;28;20212;-93
2022/12/03 10:45:12;;;;;;;7.00;6.30;;;;;;;19.29;48.12;97304.38;4988516;28;20225;-93
2022/12/03 10:47:39;;;;;;;7.33;6.63;;;;;;;20.50;48.00;97510.00;4993577;28;20186;-94
2022/12/03 10:50:14;;;;;;;7.03;6.33;;;;;;;20.01;47.99;97424.97;4989207;28;20284;-94
2022/12/03 10:52:40;;;;;;;8.07;7.27;;;;;;;19.32;47.86;97308.69;4990357;28;20183;-94
2022/12/03 10:55:10;;;;;;;7.60;6.80;;;;;;;19.71;47.86;97387.41;4991635;28;20248;-94
2022/12/03 10:57:37;;;;;;;7.13;6.43;;;;;;;19.40;47.60;97318.34;4994949;28;20219;-94
2022/12/03 11:00:15;;;;;;;7.43;6.73;;;;;;;20.50;47.97;97526.22;4989395;28;20231;-94
2022/12/03 11:02:41;;;;;;;7.73;6.93;;;;;;;20.22;47.34;97462.28;4991741;28;20228;-91
2022/12/03 11:05:13;;;;;;;8.20;7.40;;;;;;;19.62;47.89;97359.03;4992086;28;20210;-93
2022/12/03 11:07:40;;;;;;;7.47;6.53;;;;;;;19.95;48.17;97425.59;4992230;28;20188;-94
2022/12/03 11:10:11;;;;;;;7.50;6.70;;;;;;;19.72;48.00;97366.19;4992952;28;20472;-94
2022/12/03 11:12:37;;;;;;;7.97;7.17;;;;;;;20.49;48.07;97496.38;4989460;28;20208;-94
2022/12/03 11:15:05;;;;;;;8.13;7.33;;;;;;;20.25;47.78;97452.19;5005504;28;20184;-93
2022/12/03 11:17:41;;;;;;;7.77;6.97;;;;;;;20.51;47.98;97476.88;4978732;28;20195;-93
2022/12/03 11:20:23;;;;;;;7.43;6.63;;;;;;;20.52;47.80;97473.50;5006480;28;20705;-93
2022/12/03 11:22:51;;;;;;;7.90;7.10;;;;;;;19.86;47.78;97366.63;4994352;28;20267;-93
2022/12/03 11:25:23;;;;;;;7.43;6.63;;;;;;;20.51;47.99;97471.78;4992305;28;20186;-93
2022/12/03 11:28:09;;;;;;;8.07;7.07;;;;;;;20.52;47.92;97470.94;4987541;28;20191;-93
2022/12/03 11:30:47;;;;;;;7.10;6.40;;;;;;;20.52;47.76;97473.50;4993033;28;20334;-95
2022/12/03 11:33:31;;;;;;;6.83;6.17;;;;;;;20.53;47.80;97466.72;5004733;28;20284;-94
2022/12/03 11:36:04;;;;;;;7.80;7.00;;;;;;;20.53;47.90;97465.03;4973527;28;20195;-94
2022/12/03 11:38:37;;;;;;;8.80;7.30;;;;;;;20.53;47.64;97467.59;5006501;28;20239;-94
2022/12/03 11:41:17;;;;;;;7.33;6.53;;;;;;;20.02;47.81;97384.19;4994329;28;20212;-94
2022/12/03 11:43:50;;;;;;;7.23;6.53;;;;;;;20.54;47.70;97478.69;4994077;28;20208;-93
2022/12/03 11:46:20;;;;;;;7.40;6.70;;;;;;;20.53;47.81;97472.69;4984463;28;20215;-94
2022/12/03 11:48:48;;;;;;;7.83;6.80;;;;;;;20.04;47.59;97385.09;5002637;28;20192;-94
2022/12/03 11:51:15;;;;;;;7.80;6.77;;;;;;;19.11;47.81;97217.09;4992777;28;20228;-94
2022/12/03 11:53:42;;;;;;;7.63;6.83;;;;;;;19.53;47.86;97284.81;5003629;28;20228;-93
2022/12/03 11:56:15;;;;;;;7.17;6.47;;;;;;;20.29;47.71;97413.19;5012046;28;20207;-94
2022/12/03 11:58:41;;;;;;;7.40;6.70;;;;;;;19.79;47.53;97342.63;4989162;28;20204;-94
2022/12/03 12:01:08;;;;;;;7.03;6.23;;;;;;;20.46;47.84;97442.66;4988534;28;20224;-93
2022/12/03 12:03:45;;;;;;;7.33;6.53;;;;;;;20.17;47.66;97389.84;4992854;28;20219;-94
2022/12/03 12:06:13;;;;;;;7.70;6.90;;;;;;;20.36;47.63;97424.44;4989790;28;20698;-93